Time;durP1;ratioP1;P1;durP2;ratioP2;P2;SDS_P1;SDS_P2;PMS_P1;PMS_P2;Temp;Humidity;BMP_temperature;BMP_pressure;BME280_temperature;BME280_humidity;BME280_pressure;Samples;Min_cycle;Max_cycle;Signal;HPM_P1;HPM_P2
2021/01/15 00:01:24;;;;;;;14.64;9.30;;;0.20;99.90;;;4.56;83.28;102253.50;1809274;69;24430;-76
2021/01/15 00:03:41;;;;;;;14.31;8.95;;;;;;;4.49;82.77;102253.94;1802672;71;24426;-78
2021/01/15 00:05:59;;;;;;;12.42;9.19;;;0.80;99.90;;;4.01;84.81;102261.42;1804403;70;24479;-75
2021/01/15 00:08:15;;;;;;;12.55;9.08;;;0.30;99.90;;;4.24;85.15;102258.49;1783925;70;24588;-75
2021/01/15 00:10:31;;;;;;;13.31;8.72;;;0.30;99.90;;;4.41;83.10;102251.36;1814890;69;24470;-77
2021/01/15 00:12:49;;;;;;;11.83;7.22;;;;;;;4.43;82.65;102254.50;1810958;69;24982;-75
2021/01/15 00:15:07;;;;;;;12.32;8.04;;;0.40;99.90;;;3.78;84.68;102262.62;1798444;69;24451;-75
2021/01/15 00:17:34;;;;;;;12.60;8.95;;;0.30;99.90;;;4.03;84.00;102256.84;1803570;69;24542;-76
2021/01/15 00:19:51;;;;;;;13.98;8.69;;;-0.20;99.90;;;3.75;84.33;102263.73;1804736;69;24450;-76
2021/01/15 00:22:08;;;;;;;12.57;8.60;;;0.10;99.90;;;3.67;83.90;102270.10;1809450;70;24465;-77
2021/01/15 00:24:23;;;;;;;13.04;8.33;;;;;;;3.65;83.86;102273.39;1805122;70;24552;-75
2021/01/15 00:26:40;;;;;;;10.01;7.50;;;-0.10;99.90;;;3.50;85.03;102266.91;1786100;70;24878;-76
2021/01/15 00:28:57;;;;;;;13.48;8.75;;;0.00;99.90;;;2.96;87.37;102269.89;1805478;70;24985;-74
2021/01/15 00:31:30;;;;;;;11.66;7.86;;;;;;;3.88;84.80;102269.22;1809595;69;24857;-75
2021/01/15 00:33:47;;;;;;;12.85;9.23;;;0.00;99.90;;;3.45;85.55;102269.59;1803141;70;24430;-76
2021/01/15 00:36:07;;;;;;;11.90;8.01;;;0.00;99.90;;;4.16;84.68;102264.89;1800467;69;24878;-76
2021/01/15 00:38:25;;;;;;;13.30;9.04;;;0.00;99.90;;;4.56;82.44;102272.84;1806575;69;24480;-74
2021/01/15 00:40:42;;;;;;;13.12;9.02;;;0.10;99.90;;;4.78;81.35;102274.55;1819827;69;24929;-75
2021/01/15 00:43:00;;;;;;;10.56;8.26;;;0.10;99.90;;;4.83;80.67;102273.52;1801583;70;24412;-75
2021/01/15 00:45:18;;;;;;;11.93;8.50;;;0.20;99.90;;;4.99;80.62;102276.15;1803893;70;24421;-75
2021/01/15 00:47:37;;;;;;;9.56;6.91;;;0.20;99.90;;;5.03;80.16;102276.79;1802503;71;24413;-75
2021/01/15 00:49:54;;;;;;;11.75;9.00;;;0.30;99.90;;;4.91;80.42;102281.28;1805313;69;24418;-75
2021/01/15 00:52:11;;;;;;;11.76;8.56;;;0.40;99.90;;;5.15;79.52;102285.23;1801655;69;24412;-75
2021/01/15 00:54:27;;;;;;;12.33;8.01;;;0.50;99.90;;;5.03;80.63;102278.08;1804374;70;24888;-76
2021/01/15 00:56:45;;;;;;;11.98;8.16;;;0.60;99.90;;;5.22;79.76;102283.45;1802685;69;24429;-75
2021/01/15 00:59:03;;;;;;;9.68;7.87;;;0.60;99.90;;;5.29;79.55;102283.00;1795506;69;24499;-74
2021/01/15 01:01:25;;;;;;;10.44;7.72;;;0.70;99.90;;;5.23;80.19;102284.83;1800099;70;24917;-75
2021/01/15 01:03:43;;;;;;;10.25;7.26;;;0.70;99.90;;;5.19;80.07;102280.31;1812472;70;24865;-75
2021/01/15 01:05:59;;;;;;;9.01;7.84;;;0.80;99.90;;;4.63;81.74;102287.89;1808825;69;24461;-77
2021/01/15 01:08:17;;;;;;;10.73;8.17;;;0.80;99.90;;;5.26;79.85;102290.19;1806213;70;24455;-76
2021/01/15 01:10:33;;;;;;;9.54;7.58;;;0.80;99.90;;;5.39;78.59;102294.33;1794446;70;24523;-75
2021/01/15 01:12:49;;;;;;;10.63;7.87;;;0.90;99.90;;;5.38;78.88;102295.11;1811924;69;24431;-75
2021/01/15 01:15:08;;;;;;;10.20;7.87;;;0.90;99.90;;;4.88;78.12;102301.77;1801918;71;24421;-73
2021/01/15 01:17:27;;;;;;;10.00;7.38;;;0.90;99.90;;;5.28;73.10;102295.44;1796780;69;24479;-75
2021/01/15 01:19:44;;;;;;;9.80;7.40;;;0.90;99.90;;;4.93;75.67;102296.47;1820458;70;24406;-75
2021/01/15 01:22:00;;;;;;;10.55;7.70;;;0.90;99.90;;;4.98;77.34;102304.06;1804800;70;24427;-75
2021/01/15 01:24:16;;;;;;;9.28;7.49;;;1.00;99.90;;;5.29;77.65;102303.27;1806301;70;24475;-73
2021/01/15 01:26:33;;;;;;;9.52;7.53;;;1.00;99.90;;;5.35;74.78;102307.86;1796797;70;24859;-75
2021/01/15 01:28:50;;;;;;;9.18;7.26;;;1.00;99.90;;;5.50;75.75;102313.45;1799723;70;24412;-74
2021/01/15 01:31:06;;;;;;;10.05;7.39;;;1.00;99.90;;;5.41;76.26;102312.96;1814772;69;24496;-74
2021/01/15 01:33:23;;;;;;;8.52;6.85;;;1.00;99.90;;;5.47;77.02;102318.45;1802505;70;24460;-76
2021/01/15 01:35:41;;;;;;;10.38;7.36;;;1.10;99.90;;;5.49;76.80;102324.59;1800184;69;24919;-74
2021/01/15 01:37:59;;;;;;;8.65;6.96;;;1.10;99.90;;;5.50;76.49;102321.20;1798884;70;24490;-74
2021/01/15 01:40:17;;;;;;;9.29;6.88;;;1.10;99.90;;;5.53;75.97;102328.25;1802650;69;24420;-75
2021/01/15 01:42:34;;;;;;;8.95;7.05;;;1.20;99.90;;;5.51;75.89;102325.58;1821079;69;24450;-73
2021/01/15 01:44:50;;;;;;;9.93;7.09;;;1.20;99.90;;;5.60;75.31;102332.92;1811814;69;24440;-75
2021/01/15 01:47:09;;;;;;;11.25;7.51;;;1.20;99.90;;;5.27;76.66;102333.66;1797451;70;24836;-75
2021/01/15 01:49:26;;;;;;;9.55;7.25;;;1.30;99.90;;;5.69;74.49;102335.59;1806419;69;24501;-74
2021/01/15 01:51:46;;;;;;;10.00;7.79;;;1.30;99.90;;;5.33;74.56;102339.16;1798382;69;24868;-74
2021/01/15 01:54:02;;;;;;;8.94;7.04;;;1.40;99.90;;;5.60;72.83;102343.25;1808938;69;24834;-75
2021/01/15 01:56:19;;;;;;;10.06;8.12;;;1.40;99.90;;;5.71;72.92;102348.59;1801605;70;24411;-74
2021/01/15 01:58:38;;;;;;;10.31;7.76;;;1.40;99.90;;;5.41;71.62;102354.29;1808249;69;24433;-74
2021/01/15 02:01:02;;;;;;;11.97;7.66;;;1.40;99.90;;;5.39;72.12;102353.73;1799578;69;24497;-75
2021/01/15 02:03:19;;;;;;;8.52;6.98;;;1.40;99.90;;;5.31;74.77;102352.41;1802943;70;24882;-75
2021/01/15 02:05:36;;;;;;;12.18;7.74;;;1.40;99.90;;;5.54;74.46;102365.79;1803676;70;24946;-75
2021/01/15 02:07:54;;;;;;;10.00;7.42;;;1.50;99.90;;;5.74;74.15;102350.95;1802193;70;24404;-74
2021/01/15 02:10:17;;;;;;;10.35;8.11;;;1.50;99.90;;;5.38;75.40;102364.45;1802455;69;24528;-75
2021/01/15 02:12:48;;;;;;;8.84;7.39;;;1.50;99.90;;;5.37;75.66;102369.53;1804738;70;24412;-76
2021/01/15 02:15:11;;;;;;;10.44;8.24;;;1.50;99.90;;;5.71;74.12;102363.70;1800706;69;24869;-74
2021/01/15 02:17:38;;;;;;;9.19;7.45;;;1.50;99.90;;;5.71;73.87;102367.59;1798559;70;24539;-76
2021/01/15 02:20:24;;;;;;;11.30;8.16;;;1.50;99.90;;;5.37;74.35;102371.73;1801595;69;24961;-73
2021/01/15 02:22:52;;;;;;;10.07;8.08;;;1.50;99.90;;;5.40;74.28;102374.48;1785520;71;24995;-75
2021/01/15 02:26:12;;;;;;;10.66;8.27;;;1.50;99.90;;;5.56;73.37;102371.04;1803377;70;24429;-74
2021/01/15 02:29:13;;;;;;;10.64;8.23;;;1.50;99.90;;;5.31;74.32;102370.48;1794306;70;24947;-73
2021/01/15 02:32:14;;;;;;;9.97;8.61;;;1.50;99.90;;;5.55;73.72;102371.82;1821338;69;24438;-73
2021/01/15 02:34:38;;;;;;;10.80;8.12;;;1.50;99.90;;;5.46;74.22;102376.09;1825264;69;24419;-74
2021/01/15 02:37:04;;;;;;;10.26;8.56;;;1.40;99.90;;;5.81;73.40;102380.21;1817041;69;24526;-73
2021/01/15 02:39:29;;;;;;;10.32;8.11;;;1.40;99.90;;;5.77;73.41;102376.09;1816905;69;24787;-74
2021/01/15 02:41:46;;;;;;;11.35;8.53;;;1.40;99.90;;;5.84;73.34;102379.50;1816604;69;24451;-74
2021/01/15 02:44:08;;;;;;;11.75;8.82;;;1.40;99.90;;;5.37;74.39;102388.91;1816818;71;24860;-73
2021/01/15 02:46:45;;;;;;;11.16;8.07;;;1.50;99.90;;;5.71;73.52;102383.48;1825203;69;24437;-74
2021/01/15 02:49:03;;;;;;;11.99;9.03;;;1.50;99.90;;;5.35;74.72;102390.50;1816896;71;24446;-73
2021/01/15 02:51:22;;;;;;;10.57;8.15;;;1.50;99.90;;;5.36;74.69;102396.18;1817326;69;24458;-75
2021/01/15 02:53:39;;;;;;;9.69;8.64;;;1.50;99.90;;;5.63;74.28;102393.80;1816809;71;24482;-73
2021/01/15 02:55:57;;;;;;;10.92;8.44;;;1.50;99.90;;;5.29;74.83;102400.11;1816793;69;24462;-73
2021/01/15 02:58:15;;;;;;;12.66;9.17;;;1.60;99.90;;;5.59;74.09;102402.20;1816771;71;24435;-74
2021/01/15 03:00:32;;;;;;;13.26;8.92;;;1.50;99.90;;;5.31;74.80;102397.19;1816726;69;24864;-74
2021/01/15 03:03:02;;;;;;;11.18;8.28;;;1.50;99.90;;;5.79;73.40;102397.32;1825815;69;24494;-75
2021/01/15 03:05:22;;;;;;;11.50;8.66;;;1.40;99.90;;;5.33;74.39;102399.84;1816241;69;24489;-74
2021/01/15 03:07:42;;;;;;;10.18;8.62;;;1.50;99.90;;;5.22;74.82;102399.64;1816897;71;24497;-75
2021/01/15 03:10:05;;;;;;;13.31;8.90;;;1.60;99.90;;;5.39;74.52;102409.27;1816898;69;24476;-74
2021/01/15 03:12:25;;;;;;;10.27;8.73;;;1.60;99.90;;;5.28;74.51;102408.64;1816970;69;24620;-74
2021/01/15 03:14:43;;;;;;;11.68;8.32;;;1.50;99.90;;;5.65;73.34;102413.77;1816773;69;24887;-74
2021/01/15 03:17:02;;;;;;;10.37;7.74;;;1.60;99.90;;;5.51;74.16;102413.80;1817043;69;24422;-73
2021/01/15 03:19:23;;;;;;;11.10;8.54;;;1.50;99.90;;;5.67;73.72;102422.90;1817296;69;25460;-74
2021/01/15 03:21:41;;;;;;;11.00;8.82;;;1.60;99.90;;;4.83;76.39;102423.17;1816983;69;24449;-74
2021/01/15 03:24:08;;;;;;;11.77;9.07;;;1.60;99.90;;;5.46;75.99;102422.59;1816541;69;24361;-72
2021/01/15 03:26:26;;;;;;;10.55;8.31;;;1.60;99.90;;;5.73;74.27;102417.67;1820490;69;24455;-76
2021/01/15 03:28:45;;;;;;;11.79;9.08;;;1.60;99.90;;;5.79;73.65;102430.92;1817010;69;24447;-74
2021/01/15 03:31:05;;;;;;;12.60;8.91;;;1.60;99.90;;;5.78;74.00;102426.95;1816678;71;24502;-75
2021/01/15 03:33:23;;;;;;;11.80;9.20;;;1.60;99.90;;;5.77;74.21;102426.06;1804975;70;24622;-74
2021/01/15 03:35:50;;;;;;;10.99;9.02;;;1.60;99.90;;;5.77;74.26;102431.66;1812318;69;24436;-73
2021/01/15 03:38:12;;;;;;;12.26;8.44;;;1.60;99.90;;;5.76;74.30;102432.44;1818357;69;24460;-73
2021/01/15 03:40:31;;;;;;;12.24;9.21;;;1.60;99.90;;;5.59;74.92;102438.38;1807317;69;24415;-75
2021/01/15 03:42:49;;;;;;;12.78;8.88;;;1.50;99.90;;;5.73;74.85;102434.86;1789294;70;24862;-73
2021/01/15 03:45:08;;;;;;;11.62;8.98;;;1.60;99.90;;;5.76;75.02;102437.61;1801805;71;25021;-73
2021/01/15 03:47:29;;;;;;;10.56;8.72;;;1.60;99.90;;;5.77;74.99;102438.12;1803769;70;24350;-72
2021/01/15 03:49:46;;;;;;;12.78;9.58;;;1.60;99.90;;;5.73;75.62;102437.44;1800585;69;24948;-74
2021/01/15 03:52:02;;;;;;;12.22;9.50;;;1.60;99.90;;;5.80;74.75;102439.14;1806445;70;25566;-74
2021/01/15 03:54:22;;;;;;;12.79;9.79;;;1.60;99.90;;;5.81;75.24;102445.22;1802945;69;24868;-76
2021/01/15 03:56:39;;;;;;;12.45;8.90;;;1.60;99.90;;;5.75;76.03;102447.47;1807766;69;24850;-73
2021/01/15 03:58:57;;;;;;;13.16;9.90;;;1.60;99.90;;;5.72;75.41;102445.59;1787402;69;24440;-74
2021/01/15 04:01:13;;;;;;;13.82;10.20;;;1.60;99.90;;;5.64;77.22;102445.56;1810646;70;24463;-73
2021/01/15 04:03:32;;;;;;;13.11;10.27;;;1.60;99.90;;;5.76;76.77;102449.23;1795875;70;24961;-74
2021/01/15 04:05:50;;;;;;;13.71;9.99;;;1.60;99.90;;;5.72;77.45;102446.87;1813439;69;24919;-74
2021/01/15 04:08:09;;;;;;;13.57;9.85;;;1.60;99.90;;;5.75;77.38;102452.64;1776856;70;24453;-74
2021/01/15 04:10:29;;;;;;;15.10;10.11;;;1.60;99.90;;;5.62;78.05;102454.05;1805002;70;24864;-73
2021/01/15 04:12:47;;;;;;;15.23;10.38;;;1.60;99.90;;;5.80;77.78;102453.36;1799855;69;24415;-73
2021/01/15 04:15:07;;;;;;;12.74;9.92;;;1.60;99.90;;;5.61;77.90;102457.45;1812083;70;24459;-74
2021/01/15 04:17:27;;;;;;;14.10;10.60;;;1.60;99.90;;;5.79;76.79;102459.74;1798391;69;24438;-75
2021/01/15 04:19:49;;;;;;;13.65;10.37;;;1.60;99.90;;;5.58;77.37;102462.02;1807569;69;24451;-73
2021/01/15 04:22:06;;;;;;;15.25;11.10;;;1.60;99.90;;;5.68;76.92;102461.74;1813271;69;24470;-74
2021/01/15 04:24:23;;;;;;;13.81;10.88;;;1.60;99.90;;;5.76;77.66;102459.58;1811050;69;24900;-74
2021/01/15 04:26:42;;;;;;;14.76;10.33;;;1.60;99.90;;;5.78;78.26;102464.05;1813298;69;24882;-75
2021/01/15 04:29:01;;;;;;;15.96;11.30;;;1.60;99.90;;;5.83;77.64;102460.02;1801959;70;24478;-73
2021/01/15 04:31:20;;;;;;;14.54;11.28;;;1.60;99.90;;;5.74;77.70;102468.53;1813151;69;24495;-72
2021/01/15 04:33:36;;;;;;;15.43;10.63;;;1.60;99.90;;;5.83;78.61;102477.25;1818935;69;24410;-72
2021/01/15 04:35:54;;;;;;;14.80;11.00;;;1.60;99.90;;;5.79;77.74;102476.15;1817103;69;24450;-74
2021/01/15 04:38:12;;;;;;;15.06;11.20;;;1.60;99.90;;;5.74;78.53;102478.88;1826289;69;24412;-74
2021/01/15 04:40:28;;;;;;;15.64;11.31;;;1.60;99.90;;;5.72;79.23;102478.31;1819134;69;24410;-75
2021/01/15 04:42:52;;;;;;;14.29;10.43;;;1.60;99.90;;;5.35;81.35;102468.88;1817312;69;24413;-72
2021/01/15 04:45:16;;;;;;;17.20;11.32;;;1.60;99.90;;;5.40;81.12;102477.80;1817287;69;24513;-73
2021/01/15 04:47:37;;;;;;;16.00;11.72;;;1.60;99.90;;;5.30;80.80;102479.73;1816987;69;24416;-74
2021/01/15 04:49:55;;;;;;;18.13;10.80;;;1.60;99.90;;;5.70;80.96;102486.38;1817478;69;24914;-74
2021/01/15 04:52:19;;;;;;;16.50;11.79;;;1.60;99.90;;;5.40;81.03;102491.09;1816945;69;24422;-74
2021/01/15 04:54:42;;;;;;;17.34;11.67;;;1.60;99.90;;;5.82;80.36;102485.79;1817047;69;24419;-74
2021/01/15 04:57:03;;;;;;;17.16;12.06;;;1.60;99.90;;;5.83;80.21;102491.47;1816775;69;24999;-74
2021/01/15 04:59:24;;;;;;;16.70;11.15;;;1.60;99.90;;;5.79;80.06;102491.66;1817012;69;24536;-75
2021/01/15 05:01:43;;;;;;;13.21;10.61;;;1.60;99.90;;;5.87;80.17;102495.59;1816849;70;24844;-74
2021/01/15 05:04:06;;;;;;;14.39;11.62;;;1.60;99.90;;;5.78;79.12;102496.74;1818492;69;24477;-73
2021/01/15 05:06:26;;;;;;;15.12;11.16;;;1.60;99.90;;;5.91;79.70;102496.66;1816996;69;24849;-73
2021/01/15 05:08:51;;;;;;;16.62;11.48;;;1.60;99.90;;;5.92;79.02;102501.91;1816527;69;24455;-74
2021/01/15 05:11:11;;;;;;;15.93;11.36;;;1.60;99.90;;;5.95;79.16;102505.06;1817988;69;24509;-74
2021/01/15 05:13:32;;;;;;;14.72;10.13;;;1.60;99.90;;;5.54;79.43;102517.31;1817057;69;24408;-74
2021/01/15 05:15:53;;;;;;;15.84;10.66;;;1.60;99.90;;;5.49;79.56;102518.73;1816717;71;24474;-73
2021/01/15 05:18:14;;;;;;;14.60;10.80;;;1.60;99.90;;;5.33;79.98;102516.97;1795646;71;25000;-73
2021/01/15 05:20:34;;;;;;;14.78;10.54;;;1.60;99.90;;;5.35;80.57;102519.25;1828935;69;24927;-74
2021/01/15 05:22:51;;;;;;;14.45;10.80;;;1.60;99.90;;;5.31;80.16;102517.27;1816852;69;24479;-75
2021/01/15 05:25:16;;;;;;;15.00;10.24;;;1.60;99.90;;;5.32;80.68;102519.46;1817583;69;24396;-74
2021/01/15 05:27:39;;;;;;;14.05;10.21;;;1.60;99.90;;;5.25;80.56;102519.50;1817093;71;24410;-74
2021/01/15 05:30:23;;;;;;;16.01;10.83;;;1.60;99.90;;;5.09;81.54;102532.30;1817724;69;24430;-73
2021/01/15 05:32:43;;;;;;;13.82;10.21;;;1.60;99.90;;;5.68;79.73;102528.03;1835591;69;24835;-74
2021/01/15 05:35:00;;;;;;;15.79;10.60;;;1.50;99.90;;;5.62;79.66;102535.05;1804839;70;24427;-73
2021/01/15 05:37:23;;;;;;;15.50;11.15;;;1.60;99.90;;;5.14;80.80;102542.52;1805732;69;24426;-74
2021/01/15 05:39:44;;;;;;;15.54;10.71;;;1.60;99.90;;;5.76;79.34;102529.36;1799844;70;24432;-74
2021/01/15 05:42:03;;;;;;;14.05;11.14;;;1.60;99.90;;;5.45;79.43;102541.34;1805840;70;24892;-74
2021/01/15 05:44:32;;;;;;;14.80;10.78;;;1.60;99.90;;;5.70;79.18;102538.96;1792908;70;24601;-73
2021/01/15 05:46:49;;;;;;;15.85;11.10;;;1.60;99.90;;;5.45;80.24;102537.46;1800501;69;25066;-74
2021/01/15 05:49:13;;;;;;;15.48;11.61;;;1.60;99.90;;;5.48;80.99;102545.38;1802459;70;24494;-73
2021/01/15 05:51:36;;;;;;;16.46;11.63;;;1.60;99.90;;;5.59;80.23;102546.50;1803075;70;24423;-73
2021/01/15 05:53:58;;;;;;;15.56;11.53;;;1.60;99.90;;;5.55;79.41;102548.79;1810816;69;24464;-74
2021/01/15 05:56:19;;;;;;;15.53;11.99;;;1.60;99.90;;;5.66;79.33;102549.00;1810373;70;24436;-75
2021/01/15 05:58:36;;;;;;;18.75;12.55;;;1.60;99.90;;;5.62;80.29;102551.84;1805893;69;24408;-74
2021/01/15 06:00:55;;;;;;;19.57;13.10;;;1.60;99.90;;;5.69;80.51;102553.09;1792398;70;24432;-73
2021/01/15 06:03:22;;;;;;;17.74;12.10;;;1.60;99.90;;;5.78;80.03;102550.62;1827733;69;24480;-74
2021/01/15 06:05:41;;;;;;;18.16;13.16;;;1.60;99.90;;;5.73;79.39;102559.81;1816118;69;24524;-75
2021/01/15 06:08:00;;;;;;;17.54;12.59;;;1.60;99.90;;;5.58;79.93;102560.62;1794476;70;24522;-73
2021/01/15 06:10:18;;;;;;;19.44;13.34;;;1.60;99.90;;;5.26;80.67;102563.91;1799639;70;24464;-75
2021/01/15 06:12:44;;;;;;;20.81;13.90;;;1.70;99.90;;;5.40;82.03;102559.55;1806060;70;24356;-75
2021/01/15 06:15:01;;;;;;;20.28;13.86;;;1.50;99.90;;;5.10;83.25;102568.97;1814058;69;24462;-75
2021/01/15 06:17:22;;;;;;;21.69;14.71;;;1.50;99.90;;;5.02;83.35;102571.48;1812006;70;24439;-74
2021/01/15 06:19:53;;;;;;;21.32;15.05;;;1.70;99.90;;;5.28;84.83;102579.50;1799475;69;24827;-76
2021/01/15 06:22:16;;;;;;;20.14;13.85;;;1.60;99.90;;;5.16;84.21;102587.78;1800550;70;24536;-75
2021/01/15 06:24:39;;;;;;;23.18;14.33;;;1.60;99.90;;;5.06;85.14;102588.05;1800835;69;24489;-74
2021/01/15 06:27:16;;;;;;;19.81;13.50;;;1.70;99.90;;;5.61;83.91;102583.63;1823196;69;24437;-75
2021/01/15 06:29:47;;;;;;;21.02;13.46;;;1.50;99.90;;;5.05;85.06;102592.31;1813459;70;24479;-74
2021/01/15 06:32:16;;;;;;;22.15;14.83;;;1.60;99.90;;;5.19;84.16;102587.58;1787656;71;24480;-74
2021/01/15 06:34:33;;;;;;;19.81;14.61;;;1.50;99.90;;;5.74;83.17;102594.27;1806672;69;25002;-74
2021/01/15 06:36:55;;;;;;;20.11;14.32;;;1.50;99.90;;;5.13;85.02;102605.29;1801653;70;24530;-74
2021/01/15 06:39:17;;;;;;;21.29;14.02;;;1.60;99.90;;;5.58;84.16;102609.30;1797598;70;24411;-75
2021/01/15 06:41:40;;;;;;;21.16;15.90;;;1.60;99.90;;;5.08;84.30;102609.28;1809527;69;24373;-74
2021/01/15 06:44:11;;;;;;;21.28;14.36;;;1.50;99.90;;;5.58;84.75;102608.42;1802488;70;24384;-76
2021/01/15 06:46:31;;;;;;;20.46;13.41;;;1.60;99.90;;;5.15;84.81;102611.83;1805687;70;24840;-75
2021/01/15 06:48:53;;;;;;;22.08;14.30;;;1.60;99.90;;;5.12;85.29;102613.81;1809007;69;24417;-76
2021/01/15 06:51:11;;;;;;;18.45;12.41;;;1.80;99.90;;;5.77;83.36;102609.56;1796526;71;24405;-74
2021/01/15 06:53:32;;;;;;;22.64;15.16;;;1.60;99.90;;;5.00;84.89;102618.63;1802233;70;24877;-76
2021/01/15 06:55:51;;;;;;;23.18;15.27;;;1.60;99.90;;;5.73;84.91;102622.22;1802267;70;24399;-74
2021/01/15 06:58:15;;;;;;;21.35;15.07;;;1.60;99.90;;;5.95;82.92;102622.30;1812961;69;24467;-75
2021/01/15 07:00:37;;;;;;;20.98;15.26;;;1.60;99.90;;;5.85;83.74;102619.98;1802450;70;24440;-74
2021/01/15 07:03:42;;;;;;;22.78;16.08;;;1.60;99.90;;;5.95;83.22;102628.77;1804245;69;24380;-74
2021/01/15 07:06:01;;;;;;;23.32;15.87;;;1.60;99.90;;;6.05;82.76;102623.29;1795896;70;24463;-75
2021/01/15 07:08:25;;;;;;;22.94;16.27;;;1.40;99.90;;;5.89;82.66;102626.22;1797456;70;24532;-78
2021/01/15 07:10:46;;;;;;;22.89;16.20;;;1.60;99.90;;;5.30;84.90;102633.01;1797816;70;24522;-77
2021/01/15 07:13:19;;;;;;;22.78;15.49;;;1.60;99.90;;;5.86;84.14;102626.91;1815487;69;25017;-76
2021/01/15 07:15:54;;;;;;;24.63;16.03;;;1.60;99.90;;;5.82;83.62;102629.24;1805306;70;24963;-75
2021/01/15 07:18:27;;;;;;;23.69;15.80;;;1.60;99.90;;;5.73;83.61;102637.73;1802381;70;24850;-78
2021/01/15 07:20:47;;;;;;;25.02;16.51;;;1.60;99.90;;;5.32;84.76;102637.88;1801300;69;24911;-76
2021/01/15 07:23:07;;;;;;;22.37;15.87;;;1.60;99.90;;;5.93;83.84;102638.51;1804973;69;24482;-75
2021/01/15 07:25:32;;;;;;;22.41;15.70;;;1.60;99.90;;;6.03;82.48;102636.95;1803063;69;24435;-75
2021/01/15 07:27:54;;;;;;;22.98;15.90;;;1.60;99.90;;;5.70;83.23;102646.59;1801960;69;24510;-74
2021/01/15 07:30:23;;;;;;;23.22;15.78;;;1.60;99.90;;;5.34;84.91;102647.00;1809592;69;24852;-76
2021/01/15 07:32:42;;;;;;;23.38;15.92;;;1.60;99.90;;;5.82;83.31;102650.82;1800221;70;24403;-76
2021/01/15 07:35:03;;;;;;;24.58;15.60;;;1.60;99.90;;;5.89;82.68;102649.09;1807253;69;24959;-74
2021/01/15 07:37:29;;;;;;;23.76;16.28;;;1.60;99.90;;;5.98;82.35;102651.30;1796404;70;24421;-75
2021/01/15 07:40:21;;;;;;;23.90;16.88;;;1.60;99.90;;;6.04;82.54;102656.81;1806864;69;24463;-75
2021/01/15 07:42:51;;;;;;;23.51;15.14;;;1.60;99.90;;;5.92;82.28;102665.17;1799863;69;24415;-73
2021/01/15 07:45:12;;;;;;;24.34;16.28;;;1.60;99.90;;;5.99;81.80;102663.45;1805602;70;24484;-75
2021/01/15 07:47:37;;;;;;;23.56;16.23;;;1.60;99.90;;;6.02;82.47;102661.03;1804065;69;24400;-75
2021/01/15 07:49:54;;;;;;;23.46;17.19;;;1.60;99.90;;;5.77;82.68;102667.72;1802605;70;24478;-76
2021/01/15 07:52:19;;;;;;;24.06;16.65;;;1.60;99.90;;;6.00;82.23;102673.87;1807057;69;24406;-76
2021/01/15 07:55:04;;;;;;;22.91;16.60;;;1.70;99.90;;;5.97;82.04;102672.80;1808717;69;24592;-73
2021/01/15 07:57:28;;;;;;;23.51;16.21;;;1.70;99.90;;;6.06;82.46;102675.52;1810706;69;24424;-80
2021/01/15 07:59:49;;;;;;;22.98;16.45;;;1.70;99.90;;;6.09;81.92;102674.40;1794508;69;24980;-78
2021/01/15 08:02:08;;;;;;;22.97;16.01;;;1.70;99.90;;;6.22;81.96;102681.16;1799308;69;24462;-78
2021/01/15 08:04:32;;;;;;;23.71;16.90;;;1.70;99.90;;;6.18;81.87;102690.83;1797416;69;24409;-79
2021/01/15 08:06:55;;;;;;;23.48;16.50;;;1.70;99.90;;;6.05;81.85;102697.41;1807676;69;24959;-77
2021/01/15 08:09:17;;;;;;;23.44;15.88;;;1.70;99.90;;;6.12;82.40;102699.14;1804197;69;24985;-76
2021/01/15 08:11:36;;;;;;;23.64;16.19;;;1.70;99.90;;;6.13;82.22;102702.62;1810180;69;24465;-76
2021/01/15 08:14:10;;;;;;;22.72;16.24;;;1.70;99.90;;;6.26;82.39;102701.64;1783545;69;24647;-78
2021/01/15 08:16:33;;;;;;;24.70;16.67;;;1.70;99.90;;;6.31;81.61;102708.84;1802993;69;24646;-78
2021/01/15 08:18:53;;;;;;;25.77;17.47;;;1.70;99.90;;;6.40;81.18;102711.97;1799468;70;24449;-81
2021/01/15 08:21:25;;;;;;;24.57;17.36;;;1.80;99.90;;;6.40;80.80;102717.54;1803834;69;24682;-78
2021/01/15 08:23:42;;;;;;;22.72;16.12;;;1.80;99.90;;;6.40;81.20;102721.03;1800093;70;25037;-78
2021/01/15 08:26:31;;;;;;;25.53;16.75;;;1.80;99.90;;;6.42;80.89;102721.11;1798766;70;24498;-77
2021/01/15 08:28:54;;;;;;;22.00;16.09;;;1.80;99.90;;;6.48;81.36;102727.50;1802359;69;24397;-77
2021/01/15 08:31:15;;;;;;;24.40;16.89;;;1.80;99.90;;;6.57;80.70;102723.26;1801451;69;24510;-77
2021/01/15 08:33:37;;;;;;;25.96;17.24;;;1.90;99.90;;;6.63;80.36;102721.01;1804300;69;24922;-76
2021/01/15 08:36:00;;;;;;;23.75;16.61;;;1.90;99.90;;;6.62;80.23;102726.61;1801680;70;24869;-76
2021/01/15 08:38:31;;;;;;;23.70;16.59;;;1.90;99.90;;;6.59;80.41;102725.11;1799941;69;24767;-78
2021/01/15 08:40:49;;;;;;;24.82;16.91;;;1.90;99.90;;;6.63;80.71;102731.36;1806087;70;24532;-77
2021/01/15 08:43:11;;;;;;;25.19;16.99;;;1.90;99.90;;;6.57;80.95;102733.61;1800351;69;24911;-77
2021/01/15 08:45:31;;;;;;;23.79;16.60;;;2.00;99.90;;;6.48;80.97;102740.44;1799860;69;24468;-76
2021/01/15 08:47:50;;;;;;;26.47;16.68;;;2.00;99.90;;;6.55;80.81;102742.97;1824783;69;24499;-78
2021/01/15 08:50:09;;;;;;;25.27;17.11;;;2.00;99.90;;;6.09;82.37;102745.91;1803098;69;24919;-76
2021/01/15 08:52:32;;;;;;;25.87;17.84;;;2.00;99.90;;;6.36;82.12;102756.95;1804655;70;24465;-78
2021/01/15 08:54:59;;;;;;;24.95;17.26;;;2.00;99.90;;;6.63;81.52;102750.38;1799494;70;25061;-77
2021/01/15 09:00:00;;;;;;;25.57;16.93;;;2.00;99.90;;;7.27;78.82;102739.30;1734358;72;25746;-77
2021/01/15 09:02:21;;;;;;;24.96;16.77;;;2.10;99.90;;;6.92;79.58;102745.15;1702867;74;25001;-78
2021/01/15 09:04:47;;;;;;;24.35;16.36;;;2.10;99.90;;;6.75;79.84;102748.47;1709581;73;25120;-77
2021/01/15 09:07:07;;;;;;;23.30;15.91;;;2.10;99.90;;;6.89;79.85;102747.97;1719889;73;25050;-77
2021/01/15 09:09:32;;;;;;;24.56;16.94;;;2.20;99.90;;;6.73;80.34;102755.67;1705694;73;25147;-75
2021/01/15 09:11:51;;;;;;;24.10;16.52;;;2.20;99.90;;;7.08;79.60;102754.65;1703722;73;25441;-78
2021/01/15 09:14:19;;;;;;;24.60;16.99;;;2.20;99.90;;;6.93;79.69;102762.84;1711206;73;24497;-77
2021/01/15 09:16:38;;;;;;;23.08;16.07;;;2.30;99.90;;;6.85;79.20;102766.31;1708384;74;24507;-78
2021/01/15 09:19:08;;;;;;;25.79;16.11;;;2.30;99.90;;;6.81;79.56;102766.06;1703791;74;24499;-77
2021/01/15 09:21:30;;;;;;;22.99;16.43;;;2.30;99.90;;;6.84;79.82;102771.02;1706048;74;24501;-76
2021/01/15 09:23:47;;;;;;;22.60;16.02;;;2.40;99.90;;;6.97;78.90;102772.59;1704498;74;24511;-76
2021/01/15 09:26:05;;;;;;;20.96;15.78;;;2.40;99.90;;;6.62;79.44;102786.14;1707221;74;24508;-78
2021/01/15 09:28:26;;;;;;;24.78;16.59;;;2.50;99.90;;;6.81;79.40;102790.23;1706501;74;24441;-77
2021/01/15 09:30:48;;;;;;;22.74;15.80;;;2.50;99.90;;;6.96;79.04;102788.91;1703073;74;24525;-77
2021/01/15 09:33:07;;;;;;;22.89;16.35;;;2.50;99.90;;;6.60;80.01;102805.86;1713932;74;24487;-78
2021/01/15 09:35:25;;;;;;;22.98;15.87;;;2.50;99.90;;;6.89;79.39;102807.52;1707022;74;24523;-79
2021/01/15 09:37:46;;;;;;;23.52;16.38;;;2.60;99.90;;;6.75;79.71;102811.89;1705701;74;24488;-76
2021/01/15 09:40:15;;;;;;;23.21;16.18;;;2.60;99.90;;;6.69;80.29;102816.73;1702473;74;24458;-79
2021/01/15 09:42:33;;;;;;;20.00;14.92;;;2.50;99.90;;;6.71;80.47;102819.02;1709458;74;24629;-78
2021/01/15 09:44:57;;;;;;;22.49;15.02;;;2.50;99.90;;;6.69;80.58;102821.91;1705215;74;25101;-77
2021/01/15 09:47:18;;;;;;;21.74;15.29;;;2.50;99.90;;;6.59;80.89;102826.05;1713251;74;24901;-78
2021/01/15 09:49:40;;;;;;;22.04;15.13;;;2.50;99.90;;;6.84;80.35;102829.27;1709166;74;24678;-78
2021/01/15 09:52:05;;;;;;;20.11;14.80;;;2.50;99.90;;;7.00;80.33;102821.96;1708533;74;24515;-77
2021/01/15 09:54:25;;;;;;;21.50;14.98;;;2.50;99.90;;;6.87;80.10;102835.92;1706368;74;25005;-77
2021/01/15 09:56:47;;;;;;;20.17;14.50;;;2.50;99.90;;;6.73;80.33;102828.16;1708434;74;24534;-76
2021/01/15 09:59:14;;;;;;;20.18;13.91;;;2.60;99.90;;;6.83;79.47;102833.94;1712006;74;25004;-76